Time;durP1;ratioP1;P1;durP2;ratioP2;P2;SDS_P1;SDS_P2;PMS_P1;PMS_P2;Temp;Humidity;BMP_temperature;BMP_pressure;BME280_temperature;BME280_humidity;BME280_pressure;Samples;Min_cycle;Max_cycle;Signal;HPM_P1;HPM_P2
2021/05/11 00:00:50;;;;;;;3.70;2.33;;;;;;;14.00;38.00;100814.44;1628071;88;21292;-58
2021/05/11 00:03:55;;;;;;;3.70;1.92;;;;;;;13.97;38.31;100816.73;1628083;88;21836;-55
2021/05/11 00:07:01;;;;;;;4.58;2.15;;;;;;;13.89;38.56;100810.76;1629591;88;21250;-56
2021/05/11 00:10:08;;;;;;;4.25;2.20;;;;;;;13.88;38.69;100820.58;1629086;88;21336;-57
2021/05/11 00:13:13;;;;;;;6.92;2.25;;;;;;;13.83;38.85;100815.64;1628311;87;21232;-58
2021/05/11 00:16:18;;;;;;;2.83;1.85;;;;;;;13.80;39.11;100809.65;1634421;88;21250;-55
2021/05/11 00:19:26;;;;;;;5.08;1.80;;;;;;;13.75;39.27;100801.12;1642696;87;21773;-58
2021/05/11 00:22:33;;;;;;;4.35;2.33;;;;;;;13.70;39.57;100812.66;1628070;87;21481;-61
2021/05/11 00:25:38;;;;;;;3.83;2.45;;;;;;;13.66;39.72;100800.33;1634399;88;21223;-57
2021/05/11 00:28:43;;;;;;;4.30;1.98;;;;;;;13.61;39.90;100800.53;1629361;88;21385;-56
2021/05/11 00:31:48;;;;;;;4.05;2.20;;;;;;;13.53;40.09;100802.33;1628851;88;21252;-56
2021/05/11 00:34:55;;;;;;;3.20;2.10;;;;;;;13.46;40.24;100802.72;1629055;88;21302;-57
2021/05/11 00:38:02;;;;;;;3.20;1.98;;;;;;;13.40;40.43;100804.84;1629341;88;21278;-59
2021/05/11 00:41:09;;;;;;;4.62;2.05;;;;;;;13.36;40.58;100802.13;1629477;88;21242;-58
2021/05/11 00:44:28;;;;;;;3.12;1.80;;;;;;;13.32;40.77;100804.03;1629351;88;21326;-55
2021/05/11 00:47:35;;;;;;;5.67;2.40;;;;;;;13.27;40.85;100797.71;1642829;87;21257;-58
2021/05/11 00:50:43;;;;;;;5.55;1.90;;;;;;;13.27;40.91;100796.34;1627595;87;21259;-56
2021/05/11 00:53:49;;;;;;;4.35;2.12;;;;;;;13.26;40.98;100784.15;1629462;88;21255;-57
2021/05/11 00:56:55;;;;;;;9.85;2.52;;;;;;;13.24;41.08;100782.95;1628766;88;21302;-57
2021/05/11 01:00:01;;;;;;;3.75;1.77;;;;;;;13.24;41.27;100788.45;1627109;84;21731;-56
2021/05/11 01:03:06;;;;;;;3.05;1.82;;;;;;;13.24;41.33;100795.33;1621513;88;21242;-57
2021/05/11 01:06:12;;;;;;;4.47;2.40;;;;;;;13.23;41.38;100788.13;1622020;88;21215;-56
2021/05/11 01:09:20;;;;;;;5.35;2.45;;;;;;;13.22;41.47;100791.91;1621637;88;21242;-58
2021/05/11 01:12:27;;;;;;;6.03;2.25;;;;;;;13.22;41.52;100785.03;1621596;88;21302;-58
2021/05/11 01:15:38;;;;;;;4.05;2.08;;;;;;;13.23;41.64;100787.27;1621524;88;21605;-55
2021/05/11 01:18:42;;;;;;;5.85;2.33;;;;;;;13.23;41.66;100780.39;1621617;88;21794;-55
2021/05/11 01:25:03;;;;;;;3.35;2.05;;;;;;;13.21;41.88;100783.84;1621460;88;21183;-61
2021/05/11 01:28:41;;;;;;;6.10;2.10;;;;;;;13.21;41.92;100785.21;1621576;88;21247;-58
2021/05/11 01:52:22;;;;;;;5.35;1.95;;;;;;;13.15;42.56;100779.08;1621565;88;21692;-57
2021/05/11 01:55:28;;;;;;;9.08;3.00;;;;;;;13.12;42.61;100780.81;1621499;88;21275;-57
2021/05/11 01:58:58;;;;;;;4.95;2.08;;;;;;;13.11;42.62;100773.08;1621332;88;21274;-57
2021/05/11 02:25:21;;;;;;;3.95;2.27;;;;;;;13.04;43.51;100776.24;1643034;87;21314;-58
2021/05/11 02:28:28;;;;;;;3.80;2.55;;;;;;;13.05;43.62;100769.70;1642743;87;21253;-55
2021/05/11 02:31:34;;;;;;;5.37;2.33;;;;;;;13.08;43.70;100772.08;1642839;87;21249;-58
2021/05/11 02:34:40;;;;;;;3.98;2.10;;;;;;;13.08;43.70;100770.70;1628130;88;21761;-58
2021/05/11 02:37:47;;;;;;;4.40;2.27;;;;;;;13.08;43.88;100765.20;1629519;88;21263;-58
2021/05/11 02:40:54;;;;;;;5.33;2.35;;;;;;;13.09;43.92;100764.19;1629439;88;21422;-57
2021/05/11 02:44:04;;;;;;;5.47;2.52;;;;;;;13.11;44.06;100756.59;1629444;88;21424;-56
2021/05/11 02:47:09;;;;;;;4.22;2.30;;;;;;;13.10;44.27;100755.40;1629413;88;21370;-57
2021/05/11 02:50:16;;;;;;;4.90;2.20;;;;;;;13.11;44.38;100751.09;1629405;88;21228;-58
2021/05/11 02:53:22;;;;;;;3.50;2.58;;;;;;;13.12;44.45;100752.83;1627892;88;21292;-56
2021/05/11 02:56:28;;;;;;;3.55;2.10;;;;;;;13.15;44.53;100748.33;1629600;88;21250;-56
2021/05/11 02:59:34;;;;;;;5.30;2.55;;;;;;;13.16;44.57;100744.53;1629421;88;21311;-55
2021/05/11 03:02:39;;;;;;;12.10;2.83;;;;;;;13.19;44.77;100750.20;1627017;86;21280;-56
2021/05/11 03:05:46;;;;;;;4.37;2.50;;;;;;;13.20;44.94;100748.64;1626948;88;21250;-57
2021/05/11 03:08:51;;;;;;;5.67;2.75;;;;;;;13.21;44.94;100742.59;1627448;88;21263;-57
2021/05/11 03:11:58;;;;;;;6.72;2.85;;;;;;;13.23;45.06;100749.64;1627431;88;21208;-56
2021/05/11 03:15:03;;;;;;;5.55;3.08;;;;;;;13.24;45.10;100745.84;1627488;88;21290;-56
2021/05/11 03:18:10;;;;;;;14.60;3.92;;;;;;;13.27;45.23;100740.52;1627385;88;21284;-56
2021/05/11 03:21:16;;;;;;;5.22;3.22;;;;;;;13.29;45.31;100753.02;1627478;88;21378;-57
2021/05/11 03:24:23;;;;;;;4.97;3.47;;;;;;;13.29;45.33;100739.27;1626896;87;21280;-56
2021/05/11 03:27:31;;;;;;;6.95;3.37;;;;;;;13.30;45.44;100734.09;1625323;87;21260;-56
2021/05/11 03:30:40;;;;;;;5.80;3.22;;;;;;;13.31;45.45;100727.58;1626777;88;21389;-57
2021/05/11 03:33:44;;;;;;;7.28;3.52;;;;;;;13.32;45.55;100721.03;1638859;87;21802;-57
2021/05/11 03:36:49;;;;;;;7.42;3.27;;;;;;;13.35;45.57;100728.07;1638682;87;21249;-57
2021/05/11 03:39:56;;;;;;;6.65;3.08;;;;;;;13.36;45.63;100715.52;1627795;88;21378;-57
2021/05/11 03:43:08;;;;;;;5.62;2.90;;;;;;;13.39;45.77;100722.02;1627949;88;21879;-58
2021/05/11 03:46:11;;;;;;;9.50;3.30;;;;;;;13.41;45.77;100713.03;1594079;90;21302;-58
2021/05/11 03:49:17;;;;;;;4.53;3.10;;;;;;;13.40;45.62;100706.34;1625774;88;21446;-55
2021/05/11 03:52:24;;;;;;;6.55;3.00;;;;;;;13.39;45.74;100701.39;1627202;88;21433;-58
2021/05/11 03:55:30;;;;;;;5.95;2.85;;;;;;;13.41;45.91;100706.70;1626503;87;21351;-58
2021/05/11 03:58:35;;;;;;;4.95;2.62;;;;;;;13.43;46.11;100698.58;1627461;88;21310;-55
2021/05/11 04:01:41;;;;;;;7.17;3.35;;;;;;;13.48;46.22;100703.01;1627118;88;21970;-57
2021/05/11 04:04:52;;;;;;;6.33;2.83;;;;;;;13.54;46.21;100700.05;1623061;84;21235;-57
2021/05/11 04:08:00;;;;;;;3.58;2.58;;;;;;;13.59;46.29;100695.35;1621673;88;21239;-56
2021/05/11 04:11:21;;;;;;;7.20;3.00;;;;;;;13.64;46.39;100703.91;1621470;88;21231;-58
2021/05/11 04:17:44;;;;;;;;;;;;;;;13.73;46.52;100693.14;1623822;88;21243;-59
2021/05/11 04:20:48;;;;;;;5.70;2.52;;;;;;;13.78;46.68;100686.55;1621585;88;20601;-59
2021/05/11 04:23:55;;;;;;;4.58;2.65;;;;;;;13.84;46.79;100670.14;1621038;88;21313;-57
2021/05/11 04:27:00;;;;;;;4.45;2.67;;;;;;;13.89;46.92;100669.02;1621663;88;21887;-56
2021/05/11 04:30:08;;;;;;;6.03;3.00;;;;;;;13.98;47.01;100664.28;1621564;87;21251;-56
2021/05/11 04:33:14;;;;;;;5.03;2.67;;;;;;;14.08;46.86;100664.31;1595667;89;21277;-60
2021/05/11 04:36:19;;;;;;;5.35;2.67;;;;;;;14.22;47.15;100658.47;1595666;89;21360;-56
2021/05/11 04:39:25;;;;;;;10.78;2.72;;;;;;;14.34;47.06;100650.06;1595604;89;21574;-57
2021/05/11 04:42:32;;;;;;;9.20;2.15;;;;;;;14.48;46.99;100640.39;1615550;87;21309;-57
2021/05/11 04:45:37;;;;;;;7.80;2.90;;;;;;;14.61;46.66;100646.05;1602909;89;21238;-57
2021/05/11 04:48:43;;;;;;;5.75;2.47;;;;;;;14.74;46.47;100635.69;1620330;88;21242;-55
2021/05/11 04:51:49;;;;;;;6.55;2.75;;;;;;;14.82;46.40;100639.19;1620847;88;21882;-58
2021/05/11 04:54:55;;;;;;;6.00;3.20;;;;;;;14.86;46.31;100643.75;1624352;87;21212;-59
2021/05/11 04:58:01;;;;;;;6.72;2.75;;;;;;;14.86;46.28;100643.23;1620952;88;21800;-55
2021/05/11 05:01:07;;;;;;;6.35;2.33;;;;;;;14.91;46.43;100667.45;1595458;89;21385;-56
2021/05/11 05:04:17;;;;;;;6.28;3.10;;;;;;;14.98;46.32;100665.08;1598413;86;21275;-55
2021/05/11 05:07:26;;;;;;;10.05;3.30;;;;;;;15.07;46.28;100685.11;1627738;86;21851;-55
2021/05/11 05:10:33;;;;;;;6.40;2.90;;;;;;;15.17;45.92;100666.33;1642045;87;21241;-57
2021/05/11 05:13:40;;;;;;;7.90;2.80;;;;;;;15.25;45.76;100686.88;1625914;88;21271;-57
2021/05/11 05:16:46;;;;;;;10.70;3.12;;;;;;;15.31;45.63;100672.80;1626091;88;21362;-57
2021/05/11 05:19:53;;;;;;;6.15;2.90;;;;;;;15.32;45.48;100673.16;1595010;89;21227;-59
2021/05/11 05:22:59;;;;;;;4.10;2.50;;;;;;;15.36;45.65;100679.45;1624962;88;21623;-59
2021/05/11 05:26:09;;;;;;;8.05;3.05;;;;;;;15.44;45.85;100650.37;1624772;88;21756;-59
2021/05/11 05:29:14;;;;;;;5.90;2.90;;;;;;;15.51;45.90;100662.28;1605968;89;21938;-55
2021/05/11 05:32:23;;;;;;;11.18;3.52;;;;;;;15.57;45.69;100675.28;1625794;88;21220;-59
2021/05/11 05:35:30;;;;;;;7.60;2.50;;;;;;;15.59;45.90;100677.83;1594846;89;21286;-65
2021/05/11 05:38:40;;;;;;;6.33;2.62;;;;;;;15.61;45.92;100661.41;1606141;89;21822;-58
2021/05/11 05:41:45;;;;;;;6.50;2.45;;;;;;;15.68;45.90;100640.22;1628954;88;21819;-57
2021/05/11 05:44:54;;;;;;;7.12;2.80;;;;;;;15.78;45.66;100638.47;1642549;87;21242;-56
2021/05/11 05:48:00;;;;;;;6.45;2.75;;;;;;;15.90;45.75;100641.00;1625495;88;21241;-59
2021/05/11 05:51:06;;;;;;;5.67;2.47;;;;;;;15.99;45.43;100628.73;1626063;88;21216;-55
2021/05/11 05:54:14;;;;;;;3.62;2.40;;;;;;;16.10;45.58;100635.91;1626404;87;21243;-57
2021/05/11 05:57:22;;;;;;;15.05;2.70;;;;;;;16.25;45.45;100630.24;1625635;88;21229;-57
2021/05/11 06:00:30;;;;;;;8.75;2.27;;;;;;;16.40;45.16;100626.77;1595399;90;21247;-58
2021/05/11 06:04:02;;;;;;;11.08;2.52;;;;;;;16.60;44.92;100631.02;1643259;87;21305;-57
2021/05/11 06:06:50;;;;;;;4.03;2.30;;;;;;;16.75;44.78;100636.69;1626197;84;21291;-57
2021/05/11 06:09:56;;;;;;;8.98;2.25;;;;;;;16.82;44.60;100636.70;1624542;88;21252;-57
2021/05/11 06:13:11;;;;;;;13.20;2.70;;;;;;;16.86;44.65;100629.16;1625158;88;21266;-56
2021/05/11 06:19:40;;;;;;;4.75;2.27;;;;;;;16.77;45.03;100611.59;1611148;88;21273;-54
2021/05/11 06:22:46;;;;;;;7.80;2.50;;;;;;;16.80;45.16;100627.77;1620992;88;21259;-55
2021/05/11 06:25:56;;;;;;;9.45;2.62;;;;;;;16.78;45.20;100608.62;1628020;86;21240;-53
2021/05/11 06:29:06;;;;;;;5.97;2.65;;;;;;;16.81;45.66;100628.93;1595452;90;21334;-55
2021/05/11 06:32:11;;;;;;;8.98;2.72;;;;;;;16.86;45.43;100608.42;1605795;89;21241;-56
2021/05/11 06:35:22;;;;;;;5.97;2.35;;;;;;;16.92;45.73;100614.48;1628932;88;21275;-54
2021/05/11 06:38:26;;;;;;;8.63;2.42;;;;;;;17.03;45.81;100611.08;1626125;88;21267;-55
2021/05/11 06:41:32;;;;;;;5.15;2.45;;;;;;;17.14;45.42;100605.47;1601041;88;21254;-52
2021/05/11 06:48:18;;;;;;;18.60;3.02;;;;;;;17.24;45.73;100625.24;1608341;88;21254;-53
2021/05/11 06:54:35;;;;;;;11.88;2.62;;;;;;;17.29;45.13;100608.86;1602622;89;21279;-54
2021/05/11 06:57:40;;;;;;;9.55;2.60;;;;;;;17.26;45.42;100618.97;1608542;88;21348;-54
2021/05/11 07:00:52;;;;;;;6.12;2.35;;;;;;;17.27;45.45;100613.22;1609585;88;21247;-53
2021/05/11 07:04:00;;;;;;;3.58;2.10;;;;;;;17.29;45.37;100577.89;1609396;88;21228;-53
2021/05/11 07:07:13;;;;;;;4.55;2.08;;;;;;;17.32;45.78;100609.80;1608364;85;21285;-53
2021/05/11 07:10:24;;;;;;;6.17;2.30;;;;;;;17.40;45.85;100610.97;1606370;89;21255;-55
2021/05/11 07:13:28;;;;;;;4.28;1.90;;;;;;;17.50;45.90;100611.44;1593777;90;21286;-52
2021/05/11 07:16:35;;;;;;;6.05;2.50;;;;;;;17.61;45.87;100608.01;1624919;87;21302;-55
2021/05/11 07:19:41;;;;;;;11.95;3.58;;;;;;;17.70;45.71;100627.47;1620368;87;21239;-57
2021/05/11 07:22:47;;;;;;;9.95;2.87;;;;;;;17.78;45.42;100613.39;1640011;87;21769;-58
2021/05/11 07:29:44;;;;;;;8.75;2.47;;;;;;;17.91;45.47;100582.89;1619537;88;21298;-57
2021/05/11 07:32:35;;;;;;;5.67;2.30;;;;;;;18.03;45.82;100615.77;1620222;88;21313;-57
2021/05/11 07:35:41;;;;;;;7.35;2.17;;;;;;;18.17;45.11;100613.25;1619157;88;21393;-58
2021/05/11 07:38:47;;;;;;;7.62;2.50;;;;;;;18.26;45.50;100595.33;1605398;88;21240;-56
2021/05/11 07:41:53;;;;;;;12.10;2.47;;;;;;;18.37;45.06;100595.16;1602325;89;21272;-56
2021/05/11 07:45:02;;;;;;;8.10;2.47;;;;;;;18.45;44.80;100595.80;1602234;88;21252;-57
2021/05/11 07:48:29;;;;;;;8.30;2.33;;;;;;;18.56;45.17;100616.42;1602357;89;21860;-57
2021/05/11 08:04:58;;;;;;;4.72;2.40;;;;;;;19.12;43.82;100579.30;1640448;87;21285;-56
2021/05/11 08:17:38;;;;;;;4.10;1.90;;;;;;;19.37;43.28;100565.46;1626063;87;21362;-57
2021/05/11 08:30:39;;;;;;;8.28;2.35;;;;;;;19.69;43.28;100578.17;1627249;87;21390;-57
2021/05/11 08:33:45;;;;;;;4.47;2.12;;;;;;;19.78;44.23;100588.42;1628767;87;21398;-58
2021/05/11 08:36:50;;;;;;;4.20;2.20;;;;;;;19.87;43.51;100606.51;1593735;88;21243;-56
2021/05/11 08:39:59;;;;;;;6.50;2.00;;;;;;;19.92;42.82;100585.80;1602190;87;21246;-55
2021/05/11 08:43:08;;;;;;;4.85;2.05;;;;;;;19.97;43.29;100602.63;1627063;86;21783;-57
2021/05/11 08:46:14;;;;;;;6.20;2.30;;;;;;;20.04;43.02;100570.89;1635681;87;21248;-54
2021/05/11 08:49:21;;;;;;;5.80;2.20;;;;;;;20.11;43.88;100572.20;1626679;88;21260;-56
2021/05/11 08:52:52;;;;;;;7.55;2.60;;;;;;;20.20;43.43;100577.81;1626757;87;21263;-57
2021/05/11 09:26:22;;;;;;;5.60;2.00;;;;;;;21.22;43.08;100575.63;1633127;87;21295;-60
2021/05/11 09:32:59;;;;;;;7.00;2.10;;;;;;;21.41;43.90;100581.40;1628722;88;21263;-61
2021/05/11 10:31:24;;;;;;;7.80;2.05;;;;;;;22.20;44.07;100597.47;1523255;92;21656;-57
2021/05/11 10:41:09;;;;;;;12.13;2.35;;;;;;;22.92;43.78;100587.52;1603885;88;21302;-56
2021/05/11 10:47:22;;;;;;;10.70;2.30;;;;;;;22.95;42.82;100607.95;1577003;90;21282;-55
2021/05/11 10:50:57;;;;;;;7.10;2.10;;;;;;;22.75;43.75;100609.83;1630393;86;21938;-55
2021/05/11 10:54:09;;;;;;;10.93;2.33;;;;;;;22.75;44.30;100616.81;1599303;88;21254;-61
2021/05/11 11:01:07;;;;;;;11.30;2.67;;;;;;;22.75;43.98;100633.56;1575421;91;21271;-57
2021/05/11 11:04:33;;;;;;;8.18;2.40;;;;;;;22.68;43.84;100627.80;1590000;90;21273;-56
2021/05/11 11:07:49;;;;;;;7.08;2.25;;;;;;;22.55;44.52;100640.10;1600656;88;21238;-55
2021/05/11 11:10:54;;;;;;;6.47;2.70;;;;;;;22.44;44.78;100647.11;1630766;85;21246;-55
2021/05/11 11:14:01;;;;;;;9.53;2.60;;;;;;;22.37;44.75;100643.59;1625432;87;21255;-56
2021/05/11 11:17:09;;;;;;;10.18;3.40;;;;;;;22.26;45.33;100657.87;1624852;88;21283;-56
2021/05/11 11:20:17;;;;;;;7.28;2.33;;;;;;;22.18;45.36;100659.64;1625636;87;21295;-56
2021/05/11 11:23:33;;;;;;;6.92;2.35;;;;;;;22.15;45.51;100671.30;1625110;87;21236;-56
2021/05/11 11:26:44;;;;;;;6.42;2.52;;;;;;;22.14;46.09;100673.22;1615973;87;21259;-57
2021/05/11 11:29:50;;;;;;;8.60;2.73;;;;;;;22.06;46.26;100675.52;1625723;87;21216;-57
2021/05/11 11:32:57;;;;;;;6.45;2.70;;;;;;;21.92;46.54;100682.44;1620101;87;21315;-56
2021/05/11 11:36:02;;;;;;;4.42;2.90;;;;;;;21.69;46.73;100697.73;1625771;88;21240;-56
2021/05/11 11:39:10;;;;;;;5.90;3.17;;;;;;;21.38;47.20;100707.23;1625412;88;21236;-55
2021/05/11 11:42:40;;;;;;;9.63;3.58;;;;;;;21.03;47.52;100702.09;1624574;88;21304;-55
2021/05/11 11:45:48;;;;;;;18.48;3.72;;;;;;;20.72;47.98;100713.41;1625651;87;21232;-55
2021/05/11 11:49:12;;;;;;;7.28;3.80;;;;;;;20.39;48.64;100712.41;1625688;87;21299;-55
2021/05/11 11:52:32;;;;;;;12.28;4.65;;;;;;;20.14;49.25;100723.27;1626554;87;21632;-56
2021/05/11 11:56:11;;;;;;;18.27;5.78;;;;;;;19.83;49.67;100728.37;1598365;88;21772;-55
2021/05/11 11:59:14;;;;;;;10.43;5.42;;;;;;;19.57;49.97;100731.36;1632441;86;21349;-56
2021/05/11 12:02:19;;;;;;;8.98;5.83;;;;;;;19.33;50.43;100737.73;1629295;86;21300;-55
2021/05/11 12:05:24;;;;;;;11.08;6.15;;;;;;;19.11;50.81;100743.28;1611984;88;21220;-56
2021/05/11 12:08:32;;;;;;;11.15;6.37;;;;;;;18.96;51.53;100742.74;1635613;87;21214;-55
2021/05/11 12:11:37;;;;;;;10.72;6.45;;;;;;;18.80;52.00;100749.66;1624398;85;21280;-55
2021/05/11 12:14:45;;;;;;;12.63;7.58;;;;;;;18.61;52.34;100744.17;1616008;86;21229;-56
2021/05/11 12:17:50;;;;;;;10.75;6.55;;;;;;;18.51;52.76;100747.41;1620992;87;21310;-56
2021/05/11 12:20:57;;;;;;;15.83;4.95;;;;;;;18.43;53.15;100758.73;1624539;88;21654;-54
2021/05/11 12:24:19;;;;;;;13.35;4.92;;;;;;;18.37;53.36;100758.19;1623577;87;21255;-55
2021/05/11 12:27:26;;;;;;;5.90;4.45;;;;;;;18.30;53.71;100762.88;1626669;88;21256;-56
2021/05/11 12:30:49;;;;;;;7.37;4.12;;;;;;;18.21;53.99;100772.50;1638844;87;21377;-55
2021/05/11 12:33:54;;;;;;;10.20;4.78;;;;;;;18.23;54.34;100773.67;1624392;86;21845;-56
2021/05/11 12:37:03;;;;;;;10.50;6.75;;;;;;;18.32;54.29;100766.83;1627250;88;21843;-56
2021/05/11 12:40:12;;;;;;;8.28;4.85;;;;;;;18.49;54.29;100764.79;1642189;87;21221;-55
2021/05/11 12:43:15;;;;;;;8.53;4.80;;;;;;;18.72;53.92;100769.84;1623795;86;21387;-55
2021/05/11 12:46:40;;;;;;;7.78;4.87;;;;;;;18.95;53.44;100775.17;1620957;88;21262;-55
2021/05/11 12:49:45;;;;;;;11.55;4.72;;;;;;;18.90;52.21;100756.95;1622946;88;21216;-57
2021/05/11 12:52:52;;;;;;;9.68;4.55;;;;;;;18.75;52.68;100759.16;1615117;88;21274;-57
2021/05/11 12:59:15;;;;;;;6.25;3.50;;;;;;;19.33;52.60;100749.39;1642732;87;21254;-58
2021/05/11 13:03:02;;;;;;;7.25;3.77;;;;;;;19.67;51.40;100737.80;1629339;88;21299;-58
2021/05/11 13:09:27;;;;;;;6.17;3.60;;;;;;;20.16;50.56;100744.75;1626168;86;21786;-58
2021/05/11 13:16:34;;;;;;;10.78;3.30;;;;;;;20.21;48.17;100737.97;1622714;88;21227;-58
2021/05/11 13:22:43;;;;;;;4.20;3.15;;;;;;;20.20;47.15;100745.45;1625296;88;21255;-57
2021/05/11 13:25:55;;;;;;;8.08;3.22;;;;;;;20.34;46.05;100731.71;1622010;88;21336;-56
2021/05/11 13:29:06;;;;;;;11.50;3.12;;;;;;;20.54;46.81;100737.06;1622742;87;21224;-58
2021/05/11 13:32:15;;;;;;;3.75;2.40;;;;;;;20.84;44.11;100744.92;1592634;89;21250;-58
2021/05/11 13:35:15;;;;;;;15.30;3.40;;;;;;;20.88;43.89;100740.61;1624513;87;21217;-58
2021/05/11 13:38:21;;;;;;;8.00;2.70;;;;;;;21.03;43.25;100733.24;1624689;87;21820;-59
2021/05/11 13:41:27;;;;;;;3.95;2.08;;;;;;;21.24;42.84;100733.59;1626189;87;21198;-59
2021/05/11 13:44:35;;;;;;;3.00;1.70;;;;;;;21.32;42.27;100722.66;1626929;87;21239;-59
2021/05/11 13:47:57;;;;;;;9.03;2.20;;;;;;;21.32;40.75;100734.66;1626378;88;21777;-58
2021/05/11 13:51:11;;;;;;;3.25;1.65;;;;;;;21.39;39.73;100743.74;1624925;88;21328;-59
2021/05/11 13:54:11;;;;;;;4.72;1.75;;;;;;;21.54;39.07;100726.05;1624641;87;21268;-57
2021/05/11 14:01:33;;;;;;;2.05;1.52;;;;;;;21.82;39.77;100733.22;1624350;87;21287;-58
2021/05/11 14:03:56;;;;;;;9.68;2.35;;;;;;;22.38;38.25;100722.00;1636042;87;21567;-57
2021/05/11 14:07:03;;;;;;;7.42;1.82;;;;;;;22.27;39.00;100714.48;1644070;86;21231;-57
2021/05/11 14:10:08;;;;;;;9.23;1.45;;;;;;;22.11;38.79;100709.97;1619791;86;21813;-57
2021/05/11 14:13:14;;;;;;;4.90;1.20;;;;;;;21.94;38.77;100722.09;1639691;86;21827;-63
2021/05/11 14:16:19;;;;;;;3.75;0.85;;;;;;;21.81;38.34;100711.16;1598611;89;21285;-62
2021/05/11 14:19:27;;;;;;;2.62;1.05;;;;;;;21.92;38.17;100700.02;1600845;89;21214;-61
2021/05/11 14:22:31;;;;;;;6.47;1.52;;;;;;;21.75;37.53;100721.85;1600030;89;21269;-60
2021/05/11 14:25:38;;;;;;;7.80;1.30;;;;;;;21.79;37.70;100724.48;1599938;88;21384;-55
2021/05/11 14:28:44;;;;;;;1.52;0.95;;;;;;;22.11;37.93;100715.55;1600702;89;21979;-56
2021/05/11 14:31:55;;;;;;;4.83;0.80;;;;;;;22.37;37.59;100730.94;1592527;90;21231;-58
2021/05/11 14:35:02;;;;;;;5.05;0.90;;;;;;;22.27;37.35;100718.67;1600694;89;22102;-57
2021/05/11 14:38:07;;;;;;;2.50;0.47;;;;;;;22.06;36.01;100721.00;1599793;88;21423;-58
2021/05/11 14:41:13;;;;;;;3.47;0.90;;;;;;;21.96;35.21;100731.89;1596865;89;21424;-58
2021/05/11 14:44:18;;;;;;;3.50;0.90;;;;;;;22.08;34.57;100721.61;1598935;88;21281;-57
2021/05/11 14:47:26;;;;;;;5.53;1.00;;;;;;;22.81;33.87;100730.27;1599781;89;21253;-56
2021/05/11 14:50:33;;;;;;;3.12;0.70;;;;;;;23.70;31.85;100737.05;1599320;89;21336;-57
2021/05/11 14:53:38;;;;;;;2.62;0.60;;;;;;;24.74;30.48;100730.06;1599313;89;21468;-56
2021/05/11 14:56:45;;;;;;;4.55;0.90;;;;;;;25.67;28.69;100724.16;1600372;89;21238;-57
2021/05/11 14:59:53;;;;;;;7.40;1.17;;;;;;;25.89;28.29;100734.74;1592744;90;21767;-63
2021/05/11 15:02:59;;;;;;;4.17;0.80;;;;;;;26.06;28.49;100736.33;1599384;89;21268;-58
2021/05/11 15:06:05;;;;;;;6.10;0.80;;;;;;;26.48;27.59;100726.52;1598552;89;21349;-59
2021/05/11 15:09:13;;;;;;;4.10;0.90;;;;;;;26.64;27.47;100731.66;1600815;88;21241;-58
2021/05/11 15:12:19;;;;;;;4.62;0.90;;;;;;;26.71;26.87;100739.30;1564933;89;21298;-57
2021/05/11 15:15:25;;;;;;;5.33;0.85;;;;;;;26.69;26.82;100737.34;1582168;85;21256;-58
2021/05/11 15:18:32;;;;;;;4.33;0.82;;;;;;;26.38;26.08;100733.47;1621423;86;21264;-57
2021/05/11 15:21:41;;;;;;;6.05;0.70;;;;;;;25.51;26.97;100740.00;1638491;87;21265;-57
2021/05/11 15:24:48;;;;;;;5.33;0.80;;;;;;;25.61;27.37;100737.86;1625875;87;21820;-57
2021/05/11 15:27:54;;;;;;;2.80;0.60;;;;;;;25.83;27.41;100723.19;1626806;88;21258;-59
2021/05/11 15:31:01;;;;;;;4.22;0.57;;;;;;;26.12;27.06;100725.42;1625888;87;21218;-58
2021/05/11 15:34:08;;;;;;;4.78;0.88;;;;;;;26.14;26.15;100733.02;1627184;87;21481;-57
2021/05/11 15:37:15;;;;;;;1.65;0.50;;;;;;;26.26;26.59;100733.66;1627491;88;21433;-56
2021/05/11 15:40:23;;;;;;;4.70;0.72;;;;;;;26.63;26.23;100736.42;1626210;88;21201;-57
2021/05/11 15:43:32;;;;;;;5.17;0.70;;;;;;;26.74;25.83;100728.37;1593236;90;21576;-59
2021/05/11 15:46:37;;;;;;;2.70;0.85;;;;;;;26.88;25.84;100737.16;1636161;87;21354;-57
2021/05/11 15:49:43;;;;;;;3.80;0.82;;;;;;;26.95;24.95;100728.75;1591905;90;21847;-57
2021/05/11 15:52:49;;;;;;;2.58;0.40;;;;;;;26.54;25.43;100736.66;1592330;90;22011;-57
2021/05/11 15:55:55;;;;;;;4.78;0.47;;;;;;;25.68;25.94;100742.67;1625415;87;21320;-56
2021/05/11 15:59:03;;;;;;;1.72;0.50;;;;;;;25.99;26.21;100732.03;1625324;87;21938;-56
2021/05/11 16:02:10;;;;;;;3.20;0.60;;;;;;;26.41;25.10;100733.78;1626952;87;21327;-57
2021/05/11 16:05:16;;;;;;;5.05;0.53;;;;;;;26.96;25.12;100747.84;1623265;87;21251;-56
2021/05/11 16:08:23;;;;;;;2.40;0.57;;;;;;;27.40;24.86;100739.34;1590940;88;21247;-56
2021/05/11 16:11:28;;;;;;;7.50;0.98;;;;;;;27.61;24.33;100748.94;1623206;86;21255;-58
2021/05/11 16:14:33;;;;;;;2.47;0.80;;;;;;;27.46;24.52;100742.44;1638275;87;21225;-55
2021/05/11 16:17:38;;;;;;;2.35;0.80;;;;;;;27.52;24.25;100746.41;1638487;85;21284;-57
2021/05/11 16:20:44;;;;;;;5.42;1.00;;;;;;;27.65;24.26;100740.21;1627382;87;21243;-57
2021/05/11 16:23:49;;;;;;;5.25;0.70;;;;;;;27.35;24.34;100740.15;1627416;87;21456;-58
2021/05/11 16:26:54;;;;;;;4.65;1.12;;;;;;;26.64;24.74;100740.95;1627753;88;21374;-59
2021/05/11 16:29:59;;;;;;;1.45;0.70;;;;;;;25.64;25.60;100737.33;1626786;87;21240;-55
2021/05/11 16:33:09;;;;;;;6.42;1.00;;;;;;;24.62;26.90;100742.78;1622111;88;21257;-56
2021/05/11 16:36:14;;;;;;;4.05;1.12;;;;;;;23.84;27.71;100756.05;1621585;88;21362;-56
2021/05/11 16:39:20;;;;;;;4.45;1.00;;;;;;;23.16;29.13;100760.88;1621722;88;21912;-57
2021/05/11 16:42:26;;;;;;;3.05;1.20;;;;;;;22.56;30.16;100759.57;1621786;88;21358;-57
2021/05/11 16:45:32;;;;;;;3.35;0.90;;;;;;;21.97;30.97;100762.89;1621826;87;21247;-55
2021/05/11 16:48:40;;;;;;;4.85;1.02;;;;;;;21.36;32.11;100769.29;1621831;88;21926;-55
2021/05/11 16:51:47;;;;;;;2.02;0.72;;;;;;;20.80;33.47;100767.37;1621044;88;21498;-55
2021/05/11 16:54:51;;;;;;;1.92;0.82;;;;;;;20.25;34.52;100780.91;1621224;88;21353;-54
2021/05/11 16:57:50;;;;;;;4.00;0.88;;;;;;;19.79;35.40;100786.02;1626292;88;21374;-54
2021/05/11 17:00:58;;;;;;;1.62;0.95;;;;;;;19.45;36.24;100792.02;1624635;87;21239;-59
2021/05/11 17:04:03;;;;;;;1.05;0.90;;;;;;;19.11;36.75;100791.85;1625256;86;21268;-58
2021/05/11 17:07:11;;;;;;;3.25;0.82;;;;;;;18.71;37.59;100791.17;1622544;88;21402;-58
2021/05/11 17:10:17;;;;;;;4.28;1.00;;;;;;;18.31;38.26;100791.47;1622251;88;21279;-55
2021/05/11 17:13:22;;;;;;;7.70;1.35;;;;;;;17.94;38.86;100804.07;1619934;87;21239;-59
2021/05/11 17:16:29;;;;;;;8.73;1.37;;;;;;;17.55;39.50;100805.44;1626054;88;21300;-57
2021/05/11 17:19:35;;;;;;;5.75;0.80;;;;;;;17.20;40.04;100814.89;1641356;84;21269;-56
2021/05/11 17:22:41;;;;;;;8.23;1.10;;;;;;;16.94;40.59;100817.55;1627827;88;21364;-55
2021/05/11 17:25:47;;;;;;;8.78;1.30;;;;;;;16.71;41.26;100824.81;1628301;88;21223;-56
2021/05/11 17:28:56;;;;;;;5.78;0.93;;;;;;;16.49;41.81;100811.28;1627390;88;21422;-56
2021/05/11 17:32:00;;;;;;;6.80;0.90;;;;;;;16.29;42.25;100827.69;1627880;88;21239;-55
2021/05/11 17:35:14;;;;;;;3.98;1.00;;;;;;;16.09;42.56;100830.29;1625728;86;21261;-53
2021/05/11 17:38:18;;;;;;;2.62;1.00;;;;;;;15.91;43.12;100828.56;1614877;88;21365;-54
2021/05/11 17:41:22;;;;;;;4.12;1.40;;;;;;;15.74;43.88;100845.09;1624574;86;21761;-58
2021/05/11 17:44:29;;;;;;;2.67;1.57;;;;;;;15.55;44.26;100840.23;1627312;87;21263;-54
2021/05/11 17:47:34;;;;;;;2.35;1.50;;;;;;;15.40;44.34;100857.34;1642266;86;21249;-55
2021/05/11 17:50:40;;;;;;;3.30;1.30;;;;;;;15.26;44.62;100850.45;1616470;89;21248;-54
2021/05/11 17:53:48;;;;;;;2.17;1.17;;;;;;;15.13;44.81;100852.54;1622046;86;21434;-54
2021/05/11 17:56:54;;;;;;;2.00;1.22;;;;;;;15.02;45.02;100862.69;1626741;88;21224;-54
2021/05/11 18:00:01;;;;;;;1.82;1.20;;;;;;;14.91;45.39;100868.70;1628653;86;21263;-55
2021/05/11 18:03:08;;;;;;;6.08;1.35;;;;;;;14.81;45.59;100864.85;1624239;88;21782;-54
2021/05/11 18:06:15;;;;;;;1.92;1.25;;;;;;;14.68;45.79;100861.08;1640954;87;21256;-55
2021/05/11 18:09:21;;;;;;;3.35;1.67;;;;;;;14.54;45.88;100862.77;1641524;87;21249;-53